Time;durP1;ratioP1;P1;durP2;ratioP2;P2;SDS_P1;SDS_P2;PMS_P1;PMS_P2;Temp;Humidity;BMP_temperature;BMP_pressure;BME280_temperature;BME280_humidity;BME280_pressure;Samples;Min_cycle;Max_cycle;Signal;HPM_P1;HPM_P2
2021/04/13 00:02:05;;;;;;;8.13;4.20;;;;;;;;;;731978;189;911777;-73
2021/04/13 00:04:31;;;;;;;5.33;3.30;;;;;;;;;;741676;189;862194;-71
2021/04/13 00:06:57;;;;;;;5.93;3.37;;;;;;;;;;734500;189;917897;-73
2021/04/13 00:09:23;;;;;;;5.37;2.97;;;;;;;;;;736974;188;918031;-72
2021/04/13 00:11:50;;;;;;;6.03;3.60;;;;;;;;;;735046;189;1018510;-71
2021/04/13 00:14:16;;;;;;;7.57;4.00;;;;;;;;;;739803;189;919483;-73
2021/04/13 00:16:42;;;;;;;5.17;3.40;;;;;;;;;;733302;189;919739;-74
2021/04/13 00:19:08;;;;;;;6.20;3.93;;;;;;;;;;733625;189;1021003;-73
2021/04/13 00:21:37;;;;;;;5.80;3.60;;;;;;;;;;737283;189;897407;-76
2021/04/13 00:24:03;;;;;;;6.25;3.80;;;;;;;;;;738302;189;907686;-74
2021/04/13 00:26:29;;;;;;;4.65;3.33;;;;;;;;;;730720;189;915514;-72
2021/04/13 00:28:55;;;;;;;7.80;3.90;;;;;;;;;;739391;189;865531;-73
2021/04/13 00:31:38;;;;;;;7.83;3.90;;;;;;;;;;735052;189;934397;-72
2021/04/13 00:33:47;;;;;;;5.70;3.80;;;;;;;;;;735154;189;918227;-73
2021/04/13 00:36:15;;;;;;;5.17;3.70;;;;;;;;;;740408;189;919441;-72
2021/04/13 00:38:39;;;;;;;4.60;3.40;;;;;;;;;;734401;189;1104426;-71
2021/04/13 00:41:09;;;;;;;4.97;3.27;;;;;;;;;;737282;189;919353;-70
2021/04/13 00:43:35;;;;;;;6.93;4.20;;;;;;;;;;733779;189;916304;-71
2021/04/13 00:46:00;;;;;;;6.33;3.67;;;;;;;;;;740596;189;915680;-75
2021/04/13 00:48:26;;;;;;;6.33;4.23;;;;;;;;;;730625;189;1018087;-71
2021/04/13 00:50:52;;;;;;;6.60;4.33;;;;;;;;;;735620;189;918472;-73
2021/04/13 00:53:18;;;;;;;6.50;4.00;;;;;;;;;;735559;189;915275;-70
2021/04/13 00:55:44;;;;;;;6.50;3.70;;;;;;;;;;734990;189;917247;-70
2021/04/13 00:58:15;;;;;;;5.43;3.60;;;;;;;;;;734413;189;914608;-69
2021/04/13 01:00:40;;;;;;;6.00;4.05;;;;;;;;;;727782;189;918984;-71
2021/04/13 01:03:07;;;;;;;6.17;3.80;;;;;;;;;;735708;189;918160;-71
2021/04/13 01:05:35;;;;;;;6.40;3.50;;;;;;;;;;730864;189;920009;-70
2021/04/13 01:08:01;;;;;;;7.40;4.40;;;;;;;;;;728372;189;919108;-69
2021/04/13 01:10:30;;;;;;;5.50;3.90;;;;;;;;;;729039;189;1016873;-70
2021/04/13 01:12:55;;;;;;;6.30;3.90;;;;;;;;;;734947;189;912194;-70
2021/04/13 01:15:20;;;;;;;6.10;3.43;;;;;;;;;;730724;189;915750;-70
2021/04/13 01:17:46;;;;;;;4.80;3.03;;;;;;;;;;735457;189;914701;-70
2021/04/13 01:20:17;;;;;;;7.43;4.00;;;;;;;;;;740468;187;916952;-69
2021/04/13 01:22:50;;;;;;;5.50;3.30;;;;;;;;;;731760;189;915287;-70
2021/04/13 01:25:10;;;;;;;4.07;2.40;;;;;;;;;;735720;189;914793;-70
2021/04/13 01:27:36;;;;;;;5.50;3.20;;;;;;;;;;736377;189;915314;-70
2021/04/13 01:30:11;;;;;;;3.77;2.50;;;;;;;;;;731869;189;1735882;-69
2021/04/13 01:32:36;;;;;;;4.10;2.27;;;;;;;;;;730763;189;918534;-70
2021/04/13 01:35:07;;;;;;;4.60;2.60;;;;;;;;;;733360;189;918499;-71
2021/04/13 01:37:41;;;;;;;3.50;2.20;;;;;;;;;;738178;189;918687;-70
2021/04/13 01:40:15;;;;;;;3.23;1.90;;;;;;;;;;736502;189;919329;-68
2021/04/13 01:42:28;;;;;;;3.17;2.00;;;;;;;;;;738303;189;919338;-70
2021/04/13 01:44:55;;;;;;;2.25;1.75;;;;;;;;;;730529;189;959032;-70
2021/04/13 01:47:20;;;;;;;2.43;1.60;;;;;;;;;;741652;189;918401;-70
2021/04/13 01:49:46;;;;;;;3.43;2.20;;;;;;;;;;735521;189;922871;-70
2021/04/13 01:52:12;;;;;;;2.40;1.57;;;;;;;;;;732788;189;919553;-72
2021/04/13 01:54:38;;;;;;;3.97;1.87;;;;;;;;;;736117;189;919358;-67
2021/04/13 01:57:07;;;;;;;5.20;1.98;;;;;;;;;;739022;189;919261;-70
2021/04/13 01:59:34;;;;;;;3.43;2.10;;;;;;;;;;735487;189;919233;-68
2021/04/13 02:02:00;;;;;;;2.30;1.43;;;;;;;;;;728278;189;918712;-69
2021/04/13 02:04:27;;;;;;;4.40;2.70;;;;;;;;;;734388;189;917939;-68
2021/04/13 02:07:15;;;;;;;3.58;2.30;;;;;;;;;;732321;189;919092;-70
2021/04/13 02:12:16;;;;;;;3.13;1.70;;;;;;;;;;734098;189;919355;-69
2021/04/13 02:14:42;;;;;;;3.70;2.20;;;;;;;;;;736246;189;918460;-69
2021/04/13 02:17:08;;;;;;;3.05;1.80;;;;;;;;;;735507;189;919498;-67
2021/04/13 02:19:34;;;;;;;3.63;2.43;;;;;;;;;;744903;186;919388;-68
2021/04/13 02:22:02;;;;;;;3.60;2.03;;;;;;;;;;733221;189;919459;-68
2021/04/13 02:24:29;;;;;;;3.60;2.40;;;;;;;;;;730436;189;918427;-68
2021/04/13 02:26:53;;;;;;;4.30;2.37;;;;;;;;;;736866;189;919035;-68
2021/04/13 02:29:19;;;;;;;3.17;2.13;;;;;;;;;;729411;189;919293;-67
2021/04/13 02:31:47;;;;;;;4.73;3.43;;;;;;;;;;734754;189;919102;-67
2021/04/13 02:34:13;;;;;;;3.63;2.60;;;;;;;;;;743981;189;918335;-68
2021/04/13 02:36:40;;;;;;;6.43;2.67;;;;;;;;;;737461;189;920142;-67
2021/04/13 02:39:06;;;;;;;4.83;2.63;;;;;;;;;;734976;189;919343;-67
2021/04/13 02:41:32;;;;;;;4.13;2.27;;;;;;;;;;735552;189;918761;-66
2021/04/13 02:43:59;;;;;;;2.13;1.40;;;;;;;;;;740065;189;919230;-67
2021/04/13 02:46:26;;;;;;;3.00;2.23;;;;;;;;;;733847;189;919326;-68
2021/04/13 02:48:52;;;;;;;1.80;1.10;;;;;;;;;;733894;189;919487;-68
2021/04/13 02:51:18;;;;;;;3.50;2.25;;;;;;;;;;739315;189;920498;-68
2021/04/13 02:53:44;;;;;;;3.63;2.37;;;;;;;;;;733801;189;1025026;-68
2021/04/13 02:56:12;;;;;;;3.83;2.23;;;;;;;;;;732794;189;919050;-69
2021/04/13 02:58:41;;;;;;;2.97;1.90;;;;;;;;;;734528;189;919130;-68
2021/04/13 03:01:07;;;;;;;4.03;2.23;;;;;;;;;;741414;189;919405;-68
2021/04/13 03:03:33;;;;;;;2.97;2.27;;;;;;;;;;735356;189;919827;-69
2021/04/13 03:05:59;;;;;;;2.85;1.83;;;;;;;;;;738255;189;919266;-69
2021/04/13 03:08:24;;;;;;;3.53;2.20;;;;;;;;;;726295;189;919656;-69
2021/04/13 03:10:51;;;;;;;2.65;1.83;;;;;;;;;;737952;189;918469;-69
2021/04/13 03:13:17;;;;;;;4.13;2.80;;;;;;;;;;730714;189;918418;-69
2021/04/13 03:15:44;;;;;;;3.97;1.80;;;;;;;;;;737997;189;921374;-69
2021/04/13 03:18:09;;;;;;;4.87;2.20;;;;;;;;;;736769;189;921200;-69
2021/04/13 03:20:35;;;;;;;3.20;2.47;;;;;;;;;;739548;189;911857;-69
2021/04/13 03:23:01;;;;;;;3.93;2.60;;;;;;;;;;739657;189;918727;-68
2021/04/13 03:25:27;;;;;;;5.20;4.43;;;;;;;;;;729150;189;1957554;-69
2021/04/13 03:27:53;;;;;;;4.07;2.70;;;;;;;;;;737356;189;968498;-68
2021/04/13 03:30:19;;;;;;;3.60;1.90;;;;;;;;;;732527;189;919510;-69
2021/04/13 03:32:48;;;;;;;4.30;3.17;;;;;;;;;;735238;189;920009;-70
2021/04/13 03:35:14;;;;;;;4.95;3.03;;;;;;;;;;736713;189;919550;-69
2021/04/13 03:37:40;;;;;;;12.07;7.53;;;;;;;;;;736551;189;918486;-69
2021/04/13 03:40:07;;;;;;;37.70;19.33;;;;;;;;;;735499;189;919431;-69
2021/04/13 03:42:35;;;;;;;6.00;4.60;;;;;;;;;;734432;189;919400;-68
2021/04/13 03:44:59;;;;;;;7.87;6.70;;;;;;;;;;741409;187;918761;-68
2021/04/13 03:47:25;;;;;;;32.27;29.10;;;;;;;;;;738873;189;918604;-69
2021/04/13 03:49:51;;;;;;;5.67;5.10;;;;;;;;;;734683;189;919360;-69
2021/04/13 03:52:18;;;;;;;6.23;4.97;;;;;;;;;;742145;189;921338;-69
2021/04/13 03:54:44;;;;;;;5.00;3.37;;;;;;;;;;737437;189;871185;-70
2021/04/13 03:57:10;;;;;;;4.77;3.20;;;;;;;;;;733750;189;919819;-68
2021/04/13 03:59:37;;;;;;;3.10;2.40;;;;;;;;;;740095;189;918800;-70
2021/04/13 04:02:02;;;;;;;2.53;1.90;;;;;;;;;;734610;189;917210;-69
2021/04/13 04:04:32;;;;;;;10.60;7.73;;;;;;;;;;742073;189;918707;-69
2021/04/13 04:06:59;;;;;;;7.87;7.13;;;;;;;;;;734453;189;918654;-69
2021/04/13 04:09:21;;;;;;;4.33;3.63;;;;;;;;;;742538;189;919727;-68
2021/04/13 04:11:47;;;;;;;7.70;2.70;;;;;;;;;;729740;189;919363;-69
2021/04/13 04:14:13;;;;;;;7.30;4.03;;;;;;;;;;737564;189;919357;-68
2021/04/13 04:16:39;;;;;;;3.57;2.73;;;;;;;;;;740390;189;917781;-69
2021/04/13 04:19:10;;;;;;;3.60;2.40;;;;;;;;;;736393;189;918661;-68
2021/04/13 04:21:36;;;;;;;5.10;3.40;;;;;;;;;;731717;188;919428;-68
2021/04/13 04:24:21;;;;;;;2.63;1.70;;;;;;;;;;739431;189;917273;-68
2021/04/13 04:26:47;;;;;;;3.10;1.80;;;;;;;;;;727341;189;1225782;-69
2021/04/13 04:29:14;;;;;;;3.27;1.67;;;;;;;;;;744966;189;918087;-70
2021/04/13 04:31:39;;;;;;;2.83;1.73;;;;;;;;;;736341;189;869130;-69
2021/04/13 04:34:11;;;;;;;4.43;3.17;;;;;;;;;;728341;189;2152510;-70
2021/04/13 04:36:37;;;;;;;3.90;2.00;;;;;;;;;;733746;189;914586;-69
2021/04/13 04:39:09;;;;;;;5.20;3.30;;;;;;;;;;733267;189;919310;-70
2021/04/13 04:41:36;;;;;;;10.10;3.03;;;;;;;;;;733291;189;919161;-70
2021/04/13 04:44:03;;;;;;;4.93;3.00;;;;;;;;;;733261;189;1019714;-69
2021/04/13 04:46:30;;;;;;;4.50;3.00;;;;;;;;;;738415;189;917645;-68
2021/04/13 04:48:58;;;;;;;5.20;3.97;;;;;;;;;;733083;189;1122981;-69
2021/04/13 04:51:24;;;;;;;5.77;2.37;;;;;;;;;;739440;189;925109;-69
2021/04/13 04:53:50;;;;;;;4.57;3.87;;;;;;;;;;732907;189;1106107;-71
2021/04/13 04:56:16;;;;;;;11.87;3.57;;;;;;;;;;743857;188;627279;-69
2021/04/13 04:58:42;;;;;;;6.90;3.73;;;;;;;;;;740366;189;617255;-69
2021/04/13 05:01:08;;;;;;;5.93;4.10;;;;;;;;;;740682;189;626908;-68
2021/04/13 05:03:33;;;;;;;5.90;4.60;;;;;;;;;;740405;189;639456;-68
2021/04/13 05:05:59;;;;;;;9.30;4.97;;;;;;;;;;739590;189;677852;-69
2021/04/13 05:08:25;;;;;;;3.90;3.23;;;;;;;;;;737004;189;623692;-69
2021/04/13 05:10:51;;;;;;;8.93;4.40;;;;;;;;;;739854;189;919490;-68
2021/04/13 05:13:18;;;;;;;3.83;3.13;;;;;;;;;;729880;189;2421727;-69
2021/04/13 05:15:43;;;;;;;5.40;3.97;;;;;;;;;;732682;189;919202;-69
2021/04/13 05:18:09;;;;;;;5.90;4.30;;;;;;;;;;733964;189;1061333;-68
2021/04/13 05:20:35;;;;;;;5.10;3.83;;;;;;;;;;739000;189;918612;-68
2021/04/13 05:23:01;;;;;;;4.83;3.67;;;;;;;;;;735656;189;918728;-69
2021/04/13 05:25:27;;;;;;;7.47;5.33;;;;;;;;;;731234;189;1728923;-69
2021/04/13 05:27:53;;;;;;;7.73;4.80;;;;;;;;;;739132;189;920318;-67
2021/04/13 05:30:19;;;;;;;11.37;6.80;;;;;;;;;;731544;189;918600;-68
2021/04/13 05:32:45;;;;;;;12.60;7.30;;;;;;;;;;734407;189;917680;-68
2021/04/13 05:35:11;;;;;;;9.60;7.13;;;;;;;;;;735444;189;920070;-67
2021/04/13 05:37:37;;;;;;;6.33;5.40;;;;;;;;;;735869;189;919285;-67
2021/04/13 05:40:03;;;;;;;9.45;5.45;;;;;;;;;;730284;189;1891405;-65
2021/04/13 05:42:28;;;;;;;5.30;3.93;;;;;;;;;;728128;189;916884;-66
2021/04/13 05:44:55;;;;;;;11.43;6.17;;;;;;;;;;737961;189;919136;-67
2021/04/13 05:47:20;;;;;;;6.30;4.70;;;;;;;;;;732991;189;919137;-69
2021/04/13 05:49:46;;;;;;;7.85;5.05;;;;;;;;;;729975;189;1017837;-68
2021/04/13 05:52:12;;;;;;;11.20;6.77;;;;;;;;;;739557;189;916200;-67
2021/04/13 05:54:38;;;;;;;10.17;7.00;;;;;;;;;;730075;189;912483;-69
2021/04/13 05:57:04;;;;;;;8.87;4.90;;;;;;;;;;733240;189;974814;-67
2021/04/13 05:59:33;;;;;;;8.40;5.40;;;;;;;;;;741900;189;917929;-67
2021/04/13 06:01:57;;;;;;;4.90;3.17;;;;;;;;;;730304;189;923064;-67
2021/04/13 06:04:22;;;;;;;10.23;6.07;;;;;;;;;;734582;189;1166165;-67
2021/04/13 06:06:48;;;;;;;6.03;3.43;;;;;;;;;;735030;188;920419;-66
2021/04/13 06:09:14;;;;;;;4.77;3.90;;;;;;;;;;741951;189;997854;-66
2021/04/13 06:11:40;;;;;;;5.93;3.57;;;;;;;;;;737433;189;919870;-66
2021/04/13 06:14:06;;;;;;;7.13;3.83;;;;;;;;;;735082;189;920307;-66
2021/04/13 06:16:37;;;;;;;7.03;3.67;;;;;;;;;;740607;189;932303;-65
2021/04/13 06:19:00;;;;;;;11.20;7.30;;;;;;;;;;739444;189;919571;-66
2021/04/13 06:21:26;;;;;;;44.65;17.50;;;;;;;;;;733159;189;1623430;-66
2021/04/13 06:23:52;;;;;;;19.10;9.17;;;;;;;;;;742439;189;914225;-67
2021/04/13 06:26:18;;;;;;;18.40;10.23;;;;;;;;;;733193;189;919706;-66
2021/04/13 06:28:44;;;;;;;10.33;5.97;;;;;;;;;;737122;189;919376;-66
2021/04/13 06:31:09;;;;;;;61.47;26.50;;;;;;;;;;735156;189;919227;-66
2021/04/13 06:33:35;;;;;;;27.97;11.80;;;;;;;;;;733914;190;918914;-66
2021/04/13 06:36:02;;;;;;;26.13;10.60;;;;;;;;;;729562;189;918943;-66
2021/04/13 06:38:27;;;;;;;13.70;5.30;;;;;;;;;;736928;189;919295;-66
2021/04/13 06:41:13;;;;;;;12.82;6.90;;;;;;;;;;740874;189;1039269;-66
2021/04/13 06:43:41;;;;;;;11.57;8.17;;;;;;;;;;723986;190;919446;-67
2021/04/13 06:46:06;;;;;;;11.63;5.43;;;;;;;;;;735040;189;919370;-67
2021/04/13 06:48:32;;;;;;;6.57;4.80;;;;;;;;;;732060;189;919106;-66
2021/04/13 06:50:59;;;;;;;7.47;4.72;;;;;;;;;;730753;189;937786;-65
2021/04/13 06:53:30;;;;;;;5.20;3.83;;;;;;;;;;736222;186;919136;-65
2021/04/13 06:55:57;;;;;;;8.87;4.97;;;;;;;;;;734292;189;919448;-66
2021/04/13 06:58:26;;;;;;;14.77;6.05;;;;;;;;;;731834;189;919713;-66
2021/04/13 07:00:57;;;;;;;7.60;5.00;;;;;;;;;;735528;189;919323;-65
2021/04/13 07:03:29;;;;;;;16.50;7.37;;;;;;;;;;736601;189;919346;-66
2021/04/13 07:05:59;;;;;;;11.30;7.00;;;;;;;;;;731766;189;920156;-66
2021/04/13 07:08:40;;;;;;;18.63;6.33;;;;;;;;;;725522;189;2045443;-67
2021/04/13 07:11:09;;;;;;;5.47;4.28;;;;;;;;;;736432;189;919366;-66
2021/04/13 07:13:42;;;;;;;4.50;3.40;;;;;;;;;;731952;189;919152;-66
2021/04/13 07:16:08;;;;;;;8.40;4.13;;;;;;;;;;741777;189;919666;-67
2021/04/13 07:18:43;;;;;;;6.33;4.20;;;;;;;;;;736459;188;919172;-67
2021/04/13 07:21:10;;;;;;;7.90;4.10;;;;;;;;;;738300;189;919964;-64
2021/04/13 07:23:40;;;;;;;11.10;5.80;;;;;;;;;;736697;189;919038;-66
2021/04/13 07:26:06;;;;;;;6.97;3.80;;;;;;;;;;741238;189;917333;-67
2021/04/13 07:28:36;;;;;;;7.67;3.70;;;;;;;;;;731001;189;918572;-66
2021/04/13 07:30:59;;;;;;;36.53;19.40;;;;;;;;;;734401;189;919164;-65
2021/04/13 07:33:25;;;;;;;12.43;6.07;;;;;;;;;;732391;189;947452;-66
2021/04/13 07:35:50;;;;;;;10.70;6.60;;;;;;;;;;741263;189;920272;-66
2021/04/13 07:38:22;;;;;;;7.60;4.57;;;;;;;;;;729188;189;933430;-66
2021/04/13 07:40:49;;;;;;;7.00;4.60;;;;;;;;;;734799;189;915714;-67
2021/04/13 07:43:20;;;;;;;9.70;4.55;;;;;;;;;;739656;189;918865;-67
2021/04/13 07:45:42;;;;;;;10.90;4.82;;;;;;;;;;736508;189;919554;-65
2021/04/13 07:48:20;;;;;;;11.53;5.07;;;;;;;;;;733325;189;916594;-65
2021/04/13 07:50:48;;;;;;;14.70;7.57;;;;;;;;;;731700;189;919345;-67
2021/04/13 07:53:20;;;;;;;20.73;9.77;;;;;;;;;;735349;189;918876;-66
2021/04/13 07:55:49;;;;;;;19.00;7.90;;;;;;;;;;736938;189;915020;-66
2021/04/13 07:58:16;;;;;;;6.53;5.18;;;;;;;;;;736253;189;918516;-66
2021/04/13 08:00:42;;;;;;;11.53;5.83;;;;;;;;;;729110;189;919258;-67
2021/04/13 08:03:23;;;;;;;8.33;4.97;;;;;;;;;;736055;189;919444;-66
2021/04/13 08:05:50;;;;;;;8.10;5.60;;;;;;;;;;726397;189;919037;-64
2021/04/13 08:08:24;;;;;;;11.80;6.50;;;;;;;;;;740125;189;918499;-66
2021/04/13 08:10:50;;;;;;;11.18;4.20;;;;;;;;;;731935;189;919272;-66
2021/04/13 08:13:31;;;;;;;12.43;7.20;;;;;;;;;;729630;189;919342;-67
2021/04/13 08:15:57;;;;;;;10.85;7.12;;;;;;;;;;729532;189;1304990;-65
2021/04/13 08:18:34;;;;;;;6.50;4.03;;;;;;;;;;743117;189;918447;-67
2021/04/13 08:21:06;;;;;;;7.87;5.20;;;;;;;;;;728563;189;919341;-66
2021/04/13 08:23:36;;;;;;;7.07;4.23;;;;;;;;;;734191;189;920915;-65
2021/04/13 08:25:58;;;;;;;7.83;5.70;;;;;;;;;;731668;189;919247;-66
2021/04/13 08:28:28;;;;;;;9.53;5.17;;;;;;;;;;732430;189;919036;-65
2021/04/13 08:33:41;;;;;;;11.40;6.93;;;;;;;;;;738690;189;915250;-66
2021/04/13 08:36:06;;;;;;;8.17;5.70;;;;;;;;;;736104;189;923428;-66
2021/04/13 08:38:44;;;;;;;12.43;10.03;;;;;;;;;;736870;189;919831;-66
2021/04/13 08:41:10;;;;;;;16.77;8.20;;;;;;;;;;731535;189;919460;-65
2021/04/13 08:43:38;;;;;;;17.50;7.73;;;;;;;;;;740295;189;919598;-66
2021/04/13 08:46:19;;;;;;;14.47;8.10;;;;;;;;;;733402;189;918809;-69
2021/04/13 08:48:47;;;;;;;15.00;6.57;;;;;;;;;;724456;189;922574;-67
2021/04/13 08:51:14;;;;;;;5.70;5.13;;;;;;;;;;733639;189;919438;-70
2021/04/13 08:53:44;;;;;;;9.10;6.47;;;;;;;;;;729509;189;919850;-66
2021/04/13 08:56:10;;;;;;;10.63;5.00;;;;;;;;;;737852;189;919523;-65
2021/04/13 08:58:39;;;;;;;9.50;5.90;;;;;;;;;;727848;189;1226789;-66
2021/04/13 09:01:11;;;;;;;5.57;4.65;;;;;;;;;;729326;189;919413;-67
2021/04/13 09:03:41;;;;;;;5.17;3.40;;;;;;;;;;735789;189;918181;-66
2021/04/13 09:06:07;;;;;;;7.25;4.43;;;;;;;;;;743418;189;919294;-67
2021/04/13 09:08:33;;;;;;;8.60;4.97;;;;;;;;;;727167;189;919717;-65
2021/04/13 09:11:14;;;;;;;8.52;5.72;;;;;;;;;;731776;189;919482;-66
2021/04/13 09:13:40;;;;;;;5.40;4.07;;;;;;;;;;734096;189;919632;-66
2021/04/13 09:16:20;;;;;;;11.10;6.60;;;;;;;;;;741068;189;917562;-66
2021/04/13 09:18:49;;;;;;;9.17;5.17;;;;;;;;;;737698;189;1016954;-66
2021/04/13 09:21:36;;;;;;;6.67;5.00;;;;;;;;;;734207;189;917953;-65
2021/04/13 09:24:12;;;;;;;7.60;5.17;;;;;;;;;;732653;189;914594;-65
2021/04/13 09:26:40;;;;;;;15.77;8.18;;;;;;;;;;731583;189;915588;-66
2021/04/13 09:29:06;;;;;;;7.57;5.80;;;;;;;;;;732615;189;916313;-65
2021/04/13 09:31:38;;;;;;;11.25;5.90;;;;;;;;;;735946;189;918730;-66
2021/04/13 09:34:05;;;;;;;9.33;5.13;;;;;;;;;;739804;189;919481;-66
2021/04/13 09:36:31;;;;;;;6.60;5.50;;;;;;;;;;737434;189;914591;-67
2021/04/13 09:39:18;;;;;;;7.40;3.50;;;;;;;;;;732758;189;919599;-65
2021/04/13 09:41:44;;;;;;;7.50;4.37;;;;;;;;;;724726;189;938904;-66
2021/04/13 09:44:14;;;;;;;5.97;3.60;;;;;;;;;;734744;189;919109;-66
2021/04/13 09:46:42;;;;;;;10.00;7.83;;;;;;;;;;741624;189;913988;-65
2021/04/13 09:49:13;;;;;;;6.10;4.43;;;;;;;;;;735052;189;920195;-66
2021/04/13 09:51:41;;;;;;;7.53;6.03;;;;;;;;;;736307;188;916847;-69
2021/04/13 09:54:13;;;;;;;14.23;7.00;;;;;;;;;;732908;189;915061;-66
2021/04/13 09:56:58;;;;;;;9.30;7.10;;;;;;;;;;740520;189;920665;-65
2021/04/13 09:59:24;;;;;;;13.93;9.60;;;;;;;;;;735381;189;920211;-64
2021/04/13 10:02:01;;;;;;;14.43;8.90;;;;;;;;;;733319;189;947678;-65
2021/04/13 10:04:31;;;;;;;9.20;6.65;;;;;;;;;;732928;189;1101028;-67
2021/04/13 10:07:05;;;;;;;10.00;6.50;;;;;;;;;;735486;189;919826;-66
2021/04/13 10:09:30;;;;;;;13.37;7.93;;;;;;;;;;732869;189;922493;-66
2021/04/13 10:12:00;;;;;;;7.13;5.53;;;;;;;;;;739648;189;919953;-67
2021/04/13 10:14:40;;;;;;;16.20;10.33;;;;;;;;;;734295;189;924053;-70
2021/04/13 10:17:06;;;;;;;20.20;11.43;;;;;;;;;;738841;189;918925;-67
2021/04/13 10:19:48;;;;;;;12.83;8.47;;;;;;;;;;736304;189;921190;-67
2021/04/13 10:22:20;;;;;;;14.60;8.90;;;;;;;;;;735376;189;949280;-67
2021/04/13 10:25:02;;;;;;;11.40;5.87;;;;;;;;;;732066;189;921282;-69
2021/04/13 10:27:34;;;;;;;14.63;8.87;;;;;;;;;;733026;189;920454;-66
2021/04/13 10:30:17;;;;;;;19.50;12.50;;;;;;;;;;738997;189;918284;-67
2021/04/13 10:32:48;;;;;;;9.20;5.87;;;;;;;;;;718235;189;920668;-69
2021/04/13 10:35:30;;;;;;;22.80;11.83;;;;;;;;;;724038;189;1022149;-68
2021/04/13 10:38:00;;;;;;;23.60;12.77;;;;;;;;;;735259;189;917344;-66
2021/04/13 10:40:41;;;;;;;16.43;7.70;;;;;;;;;;733129;189;918506;-67
2021/04/13 10:43:10;;;;;;;36.13;17.90;;;;;;;;;;736213;189;919392;-67
2021/04/13 10:45:48;;;;;;;25.83;9.23;;;;;;;;;;731300;189;736642;-74
2021/04/13 10:48:18;;;;;;;13.17;8.70;;;;;;;;;;735276;189;641827;-66
2021/04/13 10:51:00;;;;;;;16.70;7.57;;;;;;;;;;743001;189;636292;-67
2021/04/13 10:53:44;;;;;;;15.87;7.70;;;;;;;;;;722556;192;620867;-68
2021/04/13 10:56:12;;;;;;;21.60;11.50;;;;;;;;;;740819;189;622208;-67
2021/04/13 10:58:44;;;;;;;21.63;12.87;;;;;;;;;;735907;189;920439;-67
2021/04/13 11:01:11;;;;;;;15.80;9.60;;;;;;;;;;738446;189;914337;-67
2021/04/13 11:03:44;;;;;;;17.57;7.70;;;;;;;;;;732394;189;918795;-67
2021/04/13 11:06:16;;;;;;;10.37;7.23;;;;;;;;;;736406;189;919705;-67
2021/04/13 11:08:52;;;;;;;18.10;12.32;;;;;;;;;;737285;189;919453;-67
2021/04/13 11:11:21;;;;;;;10.57;7.60;;;;;;;;;;734290;189;919974;-67
2021/04/13 11:13:53;;;;;;;20.50;9.90;;;;;;;;;;730634;189;1066143;-66
2021/04/13 11:16:33;;;;;;;29.67;11.60;;;;;;;;;;735661;189;919653;-66
2021/04/13 11:19:05;;;;;;;12.03;8.10;;;;;;;;;;718524;193;920116;-66
2021/04/13 11:21:35;;;;;;;24.57;9.10;;;;;;;;;;736201;189;920136;-65
2021/04/13 11:24:20;;;;;;;22.93;13.83;;;;;;;;;;739156;186;1021633;-66
2021/04/13 11:27:01;;;;;;;27.27;13.40;;;;;;;;;;731734;189;919221;-67
2021/04/13 11:29:44;;;;;;;16.20;10.93;;;;;;;;;;715926;189;918703;-66
2021/04/13 11:32:10;;;;;;;19.23;10.20;;;;;;;;;;725113;189;630885;-67
2021/04/13 11:34:40;;;;;;;27.70;14.27;;;;;;;;;;735558;189;626231;-68
2021/04/13 11:37:08;;;;;;;22.57;10.83;;;;;;;;;;738336;189;627808;-66
2021/04/13 11:39:34;;;;;;;24.07;12.77;;;;;;;;;;732971;189;919193;-66
2021/04/13 11:42:16;;;;;;;24.23;14.23;;;;;;;;;;736422;189;628699;-66
2021/04/13 11:44:41;;;;;;;21.40;12.70;;;;;;;;;;737476;189;918160;-65
2021/04/13 11:47:20;;;;;;;27.67;14.95;;;;;;;;;;732280;189;919415;-65
2021/04/13 11:50:02;;;;;;;16.00;9.23;;;;;;;;;;726356;189;922409;-64
2021/04/13 11:52:32;;;;;;;24.63;15.17;;;;;;;;;;731573;189;918766;-66
2021/04/13 11:54:58;;;;;;;13.17;7.87;;;;;;;;;;726655;189;918822;-66
2021/04/13 11:57:24;;;;;;;27.20;15.87;;;;;;;;;;739560;189;920042;-65
2021/04/13 11:59:56;;;;;;;17.10;11.27;;;;;;;;;;734375;189;933641;-66
2021/04/13 12:02:23;;;;;;;14.03;10.27;;;;;;;;;;731988;189;1121482;-66
2021/04/13 12:04:51;;;;;;;13.20;7.10;;;;;;;;;;736333;188;915794;-66
2021/04/13 12:07:38;;;;;;;20.77;12.70;;;;;;;;;;742733;189;924248;-66
2021/04/13 12:10:06;;;;;;;24.87;13.07;;;;;;;;;;736396;189;973016;-66
2021/04/13 12:12:45;;;;;;;16.90;7.93;;;;;;;;;;738665;189;921329;-64
2021/04/13 12:15:25;;;;;;;13.00;8.43;;;;;;;;;;734599;189;915838;-64
2021/04/13 12:17:52;;;;;;;27.90;16.57;;;;;;;;;;726617;189;916445;-66
2021/04/13 12:20:39;;;;;;;20.33;13.27;;;;;;;;;;734743;189;908083;-68
2021/04/13 12:23:19;;;;;;;24.47;15.10;;;;;;;;;;733249;189;919331;-64
2021/04/13 12:26:05;;;;;;;20.80;13.70;;;;;;;;;;718934;192;920177;-65
2021/04/13 12:28:46;;;;;;;22.33;14.77;;;;;;;;;;736678;189;919229;-66
2021/04/13 12:31:15;;;;;;;15.07;9.53;;;;;;;;;;731697;189;946704;-66
2021/04/13 12:33:45;;;;;;;17.73;9.93;;;;;;;;;;740854;189;908061;-67
2021/04/13 12:36:11;;;;;;;44.83;24.20;;;;;;;;;;737770;189;985105;-67
2021/04/13 12:38:45;;;;;;;19.93;12.90;;;;;;;;;;736176;189;919789;-66
2021/04/13 12:41:22;;;;;;;23.45;13.90;;;;;;;;;;724922;189;2345821;-68
2021/04/13 12:43:48;;;;;;;27.80;15.20;;;;;;;;;;738398;189;923983;-68
2021/04/13 12:46:22;;;;;;;34.37;19.07;;;;;;;;;;738064;189;1028626;-67
2021/04/13 12:48:48;;;;;;;18.80;12.20;;;;;;;;;;740985;189;922564;-67
2021/04/13 12:51:14;;;;;;;23.30;13.63;;;;;;;;;;734672;189;919419;-67
2021/04/13 12:53:40;;;;;;;25.83;15.27;;;;;;;;;;734904;189;918865;-68
2021/04/13 12:56:06;;;;;;;25.43;16.27;;;;;;;;;;736944;189;918329;-67
2021/04/13 12:58:32;;;;;;;24.77;13.80;;;;;;;;;;732706;189;919654;-66
2021/04/13 13:00:59;;;;;;;18.30;12.37;;;;;;;;;;732536;189;919286;-67
2021/04/13 13:03:41;;;;;;;17.30;11.20;;;;;;;;;;730764;189;919272;-67
2021/04/13 13:06:12;;;;;;;22.57;14.17;;;;;;;;;;742265;189;919437;-67
2021/04/13 13:08:38;;;;;;;22.07;14.43;;;;;;;;;;739320;189;917819;-67
2021/04/13 13:11:06;;;;;;;30.23;15.70;;;;;;;;;;737837;189;919106;-66
2021/04/13 13:13:32;;;;;;;33.35;21.60;;;;;;;;;;723298;189;1326879;-68
2021/04/13 13:15:58;;;;;;;36.40;21.50;;;;;;;;;;740566;187;918273;-67
2021/04/13 13:18:25;;;;;;;25.73;15.50;;;;;;;;;;728908;189;919429;-67
2021/04/13 13:20:56;;;;;;;32.77;16.37;;;;;;;;;;729263;189;919232;-66
2021/04/13 13:23:24;;;;;;;35.83;24.20;;;;;;;;;;735581;189;920835;-65
2021/04/13 13:25:50;;;;;;;27.80;17.13;;;;;;;;;;737033;189;919141;-65
2021/04/13 13:28:19;;;;;;;33.30;16.90;;;;;;;;;;729962;189;1237652;-66
2021/04/13 13:30:43;;;;;;;32.93;20.77;;;;;;;;;;733004;189;918499;-66
2021/04/13 13:33:09;;;;;;;59.87;29.00;;;;;;;;;;734720;189;919192;-66
2021/04/13 13:35:35;;;;;;;37.03;17.80;;;;;;;;;;725961;189;919332;-64
2021/04/13 13:38:01;;;;;;;46.97;23.17;;;;;;;;;;731777;189;916686;-66
2021/04/13 13:40:29;;;;;;;66.13;28.70;;;;;;;;;;734891;189;916163;-65
2021/04/13 13:42:55;;;;;;;33.53;19.90;;;;;;;;;;731264;189;913304;-65
2021/04/13 13:45:23;;;;;;;85.90;32.70;;;;;;;;;;738098;189;919890;-68
2021/04/13 13:47:49;;;;;;;37.35;20.23;;;;;;;;;;731380;189;1017154;-65
2021/04/13 13:50:32;;;;;;;65.90;25.57;;;;;;;;;;740467;189;918928;-65
2021/04/13 13:52:59;;;;;;;61.40;28.30;;;;;;;;;;739157;189;919467;-66
2021/04/13 13:55:24;;;;;;;68.00;27.70;;;;;;;;;;736437;189;913057;-68
2021/04/13 13:58:08;;;;;;;34.67;16.77;;;;;;;;;;735054;189;916295;-68
2021/04/13 14:00:41;;;;;;;57.97;31.03;;;;;;;;;;734438;189;919068;-68
2021/04/13 14:03:07;;;;;;;101.03;41.50;;;;;;;;;;733227;189;1022816;-68
2021/04/13 14:05:32;;;;;;;52.80;25.23;;;;;;;;;;738727;189;919569;-66
2021/04/13 14:07:58;;;;;;;52.20;25.60;;;;;;;;;;734722;189;919189;-67
2021/04/13 14:10:28;;;;;;;44.60;24.47;;;;;;;;;;733808;189;916313;-67
2021/04/13 14:12:54;;;;;;;46.50;24.00;;;;;;;;;;734447;189;918867;-67
2021/04/13 14:15:21;;;;;;;41.90;21.43;;;;;;;;;;727452;189;1823476;-67
2021/04/13 14:17:47;;;;;;;33.30;19.00;;;;;;;;;;732718;189;919424;-67
2021/04/13 14:20:13;;;;;;;34.23;18.87;;;;;;;;;;732051;189;917610;-67
2021/04/13 14:22:39;;;;;;;32.90;19.17;;;;;;;;;;740205;189;919856;-68
2021/04/13 14:25:11;;;;;;;36.83;21.00;;;;;;;;;;735072;189;998668;-66
2021/04/13 14:27:36;;;;;;;40.90;26.00;;;;;;;;;;736987;188;917742;-66
2021/04/13 14:30:02;;;;;;;44.50;23.67;;;;;;;;;;734317;189;927706;-66
2021/04/13 14:32:29;;;;;;;90.57;40.07;;;;;;;;;;744054;189;919271;-69
2021/04/13 14:34:56;;;;;;;61.90;29.20;;;;;;;;;;735299;189;916530;-66